Akuse, Ghana

6:45 PM GMT on September 01, 2014 (GMT +0000)
Kotoka International | Change Station
CLOSE
Current Station
Airport
Location: Accra,
Elevation: 226 ft
Nearby Weather Stations

Elev 226 ft 5.61 °N, 0.17 °W | Updated 45 minutes ago

Overcast
Overcast
77 °F
Feels Like 77 °F
N
16
Wind Variable Wind from SW

Today
High -- | Low -- °F
--% Chance of Precip.
Yesterday
High -- | Low -- °F
Precip. -- in
5:52 AM 6:06 PM
Waxing Crescent, 43% visible
Pressure 29.89 in
Visibility 6.2 miles
Clouds Scattered Clouds 1200 ft
Overcast 2700 ft
Dew Point 73 °F
Humidity 89%
Rainfall 0.00 in
Snow Depth Not available.
UV 0 out of 12
Pollen Not available.
Air Quality Not available.
Flu Activity Not available.
METAR DGAA 011800Z 22014KT 9999 SCT012 OVC027 25/23 Q1012 NOSIG

More Conditions Fewer Conditions

Pressure 29.89 in
Visibility 6.2 miles
Clouds Scattered Clouds 1200 ft
Overcast 2700 ft
Dew Point 73 °F
Humidity 89%
Rainfall 0.00 in
Snow Depth Not available.
UV 0 out of 12
Pollen Not available.
Air Quality Not available.
Flu Activity Not available.
METAR DGAA 011800Z 22014KT 9999 SCT012 OVC027 25/23 Q1012 NOSIG

More Conditions Fewer Conditions

10-Day Weather Forecast

Almanac

Astronomy

Sep. 01, 2014 Rise Set
Actual Time 5:52 AM GMT 6:06 PM GMT
Civil Twilight 5:31 AM GMT 6:27 PM GMT
Nautical Twilight 5:07 AM GMT 6:51 PM GMT
Astronomical Twilight 4:42 AM GMT 7:16 PM GMT
Moon 11:05 AM GMT 11:15 PM GMT
Length of Visible Light 12h 55m
Length of Day
12h 13m
Tomorrow will be 0m 20s shorter.
Waxing Crescent, 43% of the Moon is Illuminated
Today
Waxing Crescent
Sep 2
First Quarter
Sep 8
Full
Sep 15
Last Quarter
Sep 24
New

Today's Extremes

Country Highs Country Lows

Community

WunderPhotos

Upload Photos

1,749,359 photos uploaded!

Nearby

Snow Depth

Not available.

Earthquake Activity

City Distance Mag. Time & Date
No recent earthquake activity has been reported nearby.
Minimum magnitude displayed is 2.5.

Coastal Water Temperatures

Place Temperature
No Stations Reporting

Nearby Weather Stations